CheckWX is a tool to help pilots better visualize weather data.  It is not intended as a substitute for an official pre-flight weather briefing.

14:15:47 UTC

KPRN METAR
Mac Crenshaw Memorial Airport
Greenville, Alabama, USA
Current

20 mins ago

KPRN 261356Z AUTO 33014G21KT 10SM BKN016 18/13 A2992 RMK AO2 SLP129 T01830128
Observed
Apr-26 @ 13:56 UTC
Wind
  • 330° at 14 KTS
  • Gusting to 21 KTS
Visibility
10 SM
Flight Rules
MVFR
Cloud Levels
  • Broken at 1,600' AGL
Temperature
18°C / 64°F
Dewpoint
13°C / 55°F
Humidity
73%
Altimeter
29.92" Hg
Pressure
1013.22 hPa
Previous

1 hour ago

KPRN 261256Z AUTO VRB04G14KT 10SM BKN010 BKN017 18/14 A2990 RMK AO2 CIG 007V014 SLP120 T01780144
Observed
Apr-26 @ 12:56 UTC
Wind
  • Variable at 4 KTS
  • Gusting to 14 KTS
Visibility
10 SM
Flight Rules
MVFR
Cloud Levels
  • Broken at 1,000' AGL
  • Broken at 1,700' AGL
Temperature
18°C / 64°F
Dewpoint
14°C / 57°F
Humidity
78%
Altimeter
29.9" Hg
Pressure
1012.52 hPa
Previous

2 hours ago

KPRN 261242Z AUTO 32008KT 10SM SCT008 BKN013 OVC019 18/14 A2989 RMK AO2 T01780139
Observed
Apr-26 @ 12:42 UTC
Wind
  • 320° at 8 KTS
Visibility
10 SM
Flight Rules
MVFR
Cloud Levels
  • Scattered at 800' AGL
  • Broken at 1,300' AGL
  • Overcast at 1,900' AGL
Temperature
18°C / 64°F
Dewpoint
14°C / 57°F
Humidity
78%
Altimeter
29.89" Hg
Pressure
1012.22 hPa